sensor_id;sensor_type;location;lat;lon;timestamp;temperature;humidity
21502;DHT22;27639;48.674;9.242;2022-08-19T00:01:21;25.90;49.50
21502;DHT22;27639;48.674;9.242;2022-08-19T00:03:48;25.90;49.90
21502;DHT22;27639;48.674;9.242;2022-08-19T00:06:14;25.80;50.10
21502;DHT22;27639;48.674;9.242;2022-08-19T00:08:40;25.80;50.40
21502;DHT22;27639;48.674;9.242;2022-08-19T00:11:06;25.80;50.70
21502;DHT22;27639;48.674;9.242;2022-08-19T00:13:33;25.70;50.90
21502;DHT22;27639;48.674;9.242;2022-08-19T00:15:59;25.70;51.20
21502;DHT22;27639;48.674;9.242;2022-08-19T00:18:25;25.60;51.60
21502;DHT22;27639;48.674;9.242;2022-08-19T00:20:51;25.60;51.90
21502;DHT22;27639;48.674;9.242;2022-08-19T00:23:16;25.50;52.10
21502;DHT22;27639;48.674;9.242;2022-08-19T00:25:42;25.50;52.20
21502;DHT22;27639;48.674;9.242;2022-08-19T00:28:08;25.50;52.30
21502;DHT22;27639;48.674;9.242;2022-08-19T00:30:33;25.50;52.50
21502;DHT22;27639;48.674;9.242;2022-08-19T00:32:59;25.40;52.90
21502;DHT22;27639;48.674;9.242;2022-08-19T00:35:25;25.40;53.30
21502;DHT22;27639;48.674;9.242;2022-08-19T00:37:53;25.30;53.40
21502;DHT22;27639;48.674;9.242;2022-08-19T00:40:19;25.20;53.70
21502;DHT22;27639;48.674;9.242;2022-08-19T00:42:45;25.20;53.90
21502;DHT22;27639;48.674;9.242;2022-08-19T00:45:16;25.20;54.10
21502;DHT22;27639;48.674;9.242;2022-08-19T00:47:43;25.20;54.00
21502;DHT22;27639;48.674;9.242;2022-08-19T00:50:11;25.10;54.30
21502;DHT22;27639;48.674;9.242;2022-08-19T00:52:43;25.10;54.40
21502;DHT22;27639;48.674;9.242;2022-08-19T00:55:17;25.00;54.60
21502;DHT22;27639;48.674;9.242;2022-08-19T00:57:48;25.00;55.00
21502;DHT22;27639;48.674;9.242;2022-08-19T01:00:17;24.90;55.60
21502;DHT22;27639;48.674;9.242;2022-08-19T01:02:43;24.90;55.00
21502;DHT22;27639;48.674;9.242;2022-08-19T01:05:12;24.90;55.00
21502;DHT22;27639;48.674;9.242;2022-08-19T01:07:39;24.90;55.00
21502;DHT22;27639;48.674;9.242;2022-08-19T01:10:09;24.90;55.00
21502;DHT22;27639;48.674;9.242;2022-08-19T01:12:36;24.90;55.00
21502;DHT22;27639;48.674;9.242;2022-08-19T01:15:03;24.80;55.30
21502;DHT22;27639;48.674;9.242;2022-08-19T01:17:29;24.80;55.50
21502;DHT22;27639;48.674;9.242;2022-08-19T01:19:55;24.80;55.70
21502;DHT22;27639;48.674;9.242;2022-08-19T01:24:50;24.70;55.70
21502;DHT22;27639;48.674;9.242;2022-08-19T01:27:17;24.70;55.90
21502;DHT22;27639;48.674;9.242;2022-08-19T01:29:43;24.60;55.90
21502;DHT22;27639;48.674;9.242;2022-08-19T01:32:12;24.60;56.10
21502;DHT22;27639;48.674;9.242;2022-08-19T01:34:40;24.60;56.10
21502;DHT22;27639;48.674;9.242;2022-08-19T01:37:09;24.60;56.80
21502;DHT22;27639;48.674;9.242;2022-08-19T01:39:38;24.60;56.90
21502;DHT22;27639;48.674;9.242;2022-08-19T01:42:04;24.60;56.30
21502;DHT22;27639;48.674;9.242;2022-08-19T01:44:30;24.60;56.60
21502;DHT22;27639;48.674;9.242;2022-08-19T01:46:56;24.50;56.50
21502;DHT22;27639;48.674;9.242;2022-08-19T01:49:23;24.50;56.50
21502;DHT22;27639;48.674;9.242;2022-08-19T01:51:51;24.50;56.70
21502;DHT22;27639;48.674;9.242;2022-08-19T01:54:20;24.50;56.90
21502;DHT22;27639;48.674;9.242;2022-08-19T01:56:46;24.50;56.90
21502;DHT22;27639;48.674;9.242;2022-08-19T01:59:18;24.40;56.80
21502;DHT22;27639;48.674;9.242;2022-08-19T02:01:44;24.40;56.80
21502;DHT22;27639;48.674;9.242;2022-08-19T02:04:10;24.40;57.00
21502;DHT22;27639;48.674;9.242;2022-08-19T02:06:36;24.40;57.10
21502;DHT22;27639;48.674;9.242;2022-08-19T02:09:03;24.40;57.00
21502;DHT22;27639;48.674;9.242;2022-08-19T02:11:34;24.40;57.10
21502;DHT22;27639;48.674;9.242;2022-08-19T02:14:03;24.40;57.10
21502;DHT22;27639;48.674;9.242;2022-08-19T02:16:30;24.40;58.00
21502;DHT22;27639;48.674;9.242;2022-08-19T02:18:56;24.30;57.30
21502;DHT22;27639;48.674;9.242;2022-08-19T02:21:23;24.30;57.40
21502;DHT22;27639;48.674;9.242;2022-08-19T02:23:49;24.20;57.40
21502;DHT22;27639;48.674;9.242;2022-08-19T02:26:15;24.20;57.50
21502;DHT22;27639;48.674;9.242;2022-08-19T02:28:42;24.20;57.60
21502;DHT22;27639;48.674;9.242;2022-08-19T02:31:13;24.20;58.20
21502;DHT22;27639;48.674;9.242;2022-08-19T02:33:43;24.20;58.30
21502;DHT22;27639;48.674;9.242;2022-08-19T02:36:09;24.20;57.70
21502;DHT22;27639;48.674;9.242;2022-08-19T02:38:36;24.20;58.40
21502;DHT22;27639;48.674;9.242;2022-08-19T02:41:13;24.20;57.60
21502;DHT22;27639;48.674;9.242;2022-08-19T02:43:39;24.20;57.40
21502;DHT22;27639;48.674;9.242;2022-08-19T02:46:20;24.30;57.30
21502;DHT22;27639;48.674;9.242;2022-08-19T02:48:50;24.30;57.00
21502;DHT22;27639;48.674;9.242;2022-08-19T02:51:20;24.30;56.90
21502;DHT22;27639;48.674;9.242;2022-08-19T02:53:46;24.40;56.70
21502;DHT22;27639;48.674;9.242;2022-08-19T02:56:12;24.40;56.70
21502;DHT22;27639;48.674;9.242;2022-08-19T02:58:37;24.40;56.50
21502;DHT22;27639;48.674;9.242;2022-08-19T03:01:03;24.40;56.90
21502;DHT22;27639;48.674;9.242;2022-08-19T03:03:29;24.40;56.10
21502;DHT22;27639;48.674;9.242;2022-08-19T03:06:27;24.40;56.00
21502;DHT22;27639;48.674;9.242;2022-08-19T03:08:53;24.40;55.80
21502;DHT22;27639;48.674;9.242;2022-08-19T03:13:46;24.40;55.70
21502;DHT22;27639;48.674;9.242;2022-08-19T03:16:14;24.40;55.70
21502;DHT22;27639;48.674;9.242;2022-08-19T03:18:41;24.40;55.60
21502;DHT22;27639;48.674;9.242;2022-08-19T03:21:06;24.40;55.60
21502;DHT22;27639;48.674;9.242;2022-08-19T03:23:32;24.40;55.50
21502;DHT22;27639;48.674;9.242;2022-08-19T03:25:58;24.40;55.40
21502;DHT22;27639;48.674;9.242;2022-08-19T03:28:24;24.40;55.50
21502;DHT22;27639;48.674;9.242;2022-08-19T03:31:02;24.40;55.60
21502;DHT22;27639;48.674;9.242;2022-08-19T03:33:29;24.40;55.40
21502;DHT22;27639;48.674;9.242;2022-08-19T03:38:31;24.40;55.40
21502;DHT22;27639;48.674;9.242;2022-08-19T03:40:58;24.40;55.50
21502;DHT22;27639;48.674;9.242;2022-08-19T03:43:27;24.40;55.40
21502;DHT22;27639;48.674;9.242;2022-08-19T03:46:01;24.30;56.00
21502;DHT22;27639;48.674;9.242;2022-08-19T03:48:27;24.30;55.30
21502;DHT22;27639;48.674;9.242;2022-08-19T03:50:55;24.30;55.30
21502;DHT22;27639;48.674;9.242;2022-08-19T03:53:20;24.30;55.30
21502;DHT22;27639;48.674;9.242;2022-08-19T03:55:46;24.30;56.10
21502;DHT22;27639;48.674;9.242;2022-08-19T03:58:11;24.30;55.60
21502;DHT22;27639;48.674;9.242;2022-08-19T04:00:37;24.20;55.50
21502;DHT22;27639;48.674;9.242;2022-08-19T04:03:03;24.30;55.60
21502;DHT22;27639;48.674;9.242;2022-08-19T04:05:29;24.20;55.50
21502;DHT22;27639;48.674;9.242;2022-08-19T04:07:55;24.20;55.50
21502;DHT22;27639;48.674;9.242;2022-08-19T04:10:24;24.30;55.60
21502;DHT22;27639;48.674;9.242;2022-08-19T04:12:50;24.30;55.60
21502;DHT22;27639;48.674;9.242;2022-08-19T04:15:16;24.20;56.10
21502;DHT22;27639;48.674;9.242;2022-08-19T04:17:41;24.20;55.40
21502;DHT22;27639;48.674;9.242;2022-08-19T04:20:07;24.30;55.40
21502;DHT22;27639;48.674;9.242;2022-08-19T04:22:33;24.20;55.50
21502;DHT22;27639;48.674;9.242;2022-08-19T04:24:58;24.20;55.40
21502;DHT22;27639;48.674;9.242;2022-08-19T04:27:24;24.20;55.50
21502;DHT22;27639;48.674;9.242;2022-08-19T04:29:50;24.20;55.40
21502;DHT22;27639;48.674;9.242;2022-08-19T04:32:15;24.20;55.40
21502;DHT22;27639;48.674;9.242;2022-08-19T04:34:41;24.20;55.50
21502;DHT22;27639;48.674;9.242;2022-08-19T04:37:08;24.20;55.30
21502;DHT22;27639;48.674;9.242;2022-08-19T04:39:38;24.20;55.30
21502;DHT22;27639;48.674;9.242;2022-08-19T04:42:23;24.20;55.70
21502;DHT22;27639;48.674;9.242;2022-08-19T04:45:06;24.20;55.40
21502;DHT22;27639;48.674;9.242;2022-08-19T04:47:32;24.10;55.40
21502;DHT22;27639;48.674;9.242;2022-08-19T04:49:58;24.10;55.40
21502;DHT22;27639;48.674;9.242;2022-08-19T04:52:24;24.10;55.40
21502;DHT22;27639;48.674;9.242;2022-08-19T04:54:49;24.10;55.40
21502;DHT22;27639;48.674;9.242;2022-08-19T04:57:15;24.10;55.30
21502;DHT22;27639;48.674;9.242;2022-08-19T04:59:41;24.10;55.30
21502;DHT22;27639;48.674;9.242;2022-08-19T05:02:08;24.10;55.30
21502;DHT22;27639;48.674;9.242;2022-08-19T05:04:34;24.10;55.30
21502;DHT22;27639;48.674;9.242;2022-08-19T05:07:03;24.10;55.30
21502;DHT22;27639;48.674;9.242;2022-08-19T05:09:29;24.10;55.40
21502;DHT22;27639;48.674;9.242;2022-08-19T05:11:55;24.10;55.40
21502;DHT22;27639;48.674;9.242;2022-08-19T05:14:20;24.10;55.40
21502;DHT22;27639;48.674;9.242;2022-08-19T05:16:47;24.10;55.30
21502;DHT22;27639;48.674;9.242;2022-08-19T05:19:12;24.10;55.20
21502;DHT22;27639;48.674;9.242;2022-08-19T05:21:57;24.10;55.30
21502;DHT22;27639;48.674;9.242;2022-08-19T05:24:41;24.10;55.30
21502;DHT22;27639;48.674;9.242;2022-08-19T05:27:06;24.10;55.40
21502;DHT22;27639;48.674;9.242;2022-08-19T05:29:33;24.10;55.40
21502;DHT22;27639;48.674;9.242;2022-08-19T05:32:01;24.10;55.40
21502;DHT22;27639;48.674;9.242;2022-08-19T05:34:27;24.10;55.20
21502;DHT22;27639;48.674;9.242;2022-08-19T05:36:57;24.20;55.20
21502;DHT22;27639;48.674;9.242;2022-08-19T05:39:26;24.20;55.20
21502;DHT22;27639;48.674;9.242;2022-08-19T05:41:55;24.10;55.10
21502;DHT22;27639;48.674;9.242;2022-08-19T05:44:23;24.20;55.20
21502;DHT22;27639;48.674;9.242;2022-08-19T05:46:49;24.20;55.10
21502;DHT22;27639;48.674;9.242;2022-08-19T05:49:19;24.20;55.80
21502;DHT22;27639;48.674;9.242;2022-08-19T05:51:47;24.20;55.10
21502;DHT22;27639;48.674;9.242;2022-08-19T05:54:12;24.20;55.10
21502;DHT22;27639;48.674;9.242;2022-08-19T05:56:39;24.20;55.10
21502;DHT22;27639;48.674;9.242;2022-08-19T05:59:08;24.20;55.10
21502;DHT22;27639;48.674;9.242;2022-08-19T06:01:40;24.20;55.10
21502;DHT22;27639;48.674;9.242;2022-08-19T06:04:06;24.20;55.10
21502;DHT22;27639;48.674;9.242;2022-08-19T06:06:32;24.20;55.10
21502;DHT22;27639;48.674;9.242;2022-08-19T06:09:03;24.20;55.10
21502;DHT22;27639;48.674;9.242;2022-08-19T06:14:08;24.20;55.10
21502;DHT22;27639;48.674;9.242;2022-08-19T06:16:36;24.20;55.40
21502;DHT22;27639;48.674;9.242;2022-08-19T06:19:07;24.20;55.50
21502;DHT22;27639;48.674;9.242;2022-08-19T06:21:34;24.20;55.60
21502;DHT22;27639;48.674;9.242;2022-08-19T06:24:03;24.20;55.70
21502;DHT22;27639;48.674;9.242;2022-08-19T06:26:29;24.20;55.90
21502;DHT22;27639;48.674;9.242;2022-08-19T06:28:56;24.20;56.10
21502;DHT22;27639;48.674;9.242;2022-08-19T06:31:24;24.20;56.30
21502;DHT22;27639;48.674;9.242;2022-08-19T06:33:50;24.10;56.50
21502;DHT22;27639;48.674;9.242;2022-08-19T06:36:26;24.10;56.80
21502;DHT22;27639;48.674;9.242;2022-08-19T06:39:07;24.10;56.70
21502;DHT22;27639;48.674;9.242;2022-08-19T06:41:38;24.00;56.60
21502;DHT22;27639;48.674;9.242;2022-08-19T06:44:05;24.00;56.60
21502;DHT22;27639;48.674;9.242;2022-08-19T06:46:31;24.00;56.60
21502;DHT22;27639;48.674;9.242;2022-08-19T06:48:57;24.00;56.70
21502;DHT22;27639;48.674;9.242;2022-08-19T06:51:24;24.10;56.80
21502;DHT22;27639;48.674;9.242;2022-08-19T06:53:52;24.10;56.80
21502;DHT22;27639;48.674;9.242;2022-08-19T06:56:20;24.00;56.70
21502;DHT22;27639;48.674;9.242;2022-08-19T06:58:47;24.00;56.80
21502;DHT22;27639;48.674;9.242;2022-08-19T07:01:16;24.00;56.80
21502;DHT22;27639;48.674;9.242;2022-08-19T07:03:41;24.00;57.50
21502;DHT22;27639;48.674;9.242;2022-08-19T07:06:11;24.00;56.90
21502;DHT22;27639;48.674;9.242;2022-08-19T07:08:38;24.00;56.90
21502;DHT22;27639;48.674;9.242;2022-08-19T07:11:12;24.00;56.90
21502;DHT22;27639;48.674;9.242;2022-08-19T07:13:39;24.00;56.90
21502;DHT22;27639;48.674;9.242;2022-08-19T07:16:10;24.00;56.90
21502;DHT22;27639;48.674;9.242;2022-08-19T07:18:37;24.00;57.50
21502;DHT22;27639;48.674;9.242;2022-08-19T07:21:12;24.00;56.90
21502;DHT22;27639;48.674;9.242;2022-08-19T07:23:37;24.00;56.80
21502;DHT22;27639;48.674;9.242;2022-08-19T07:26:09;24.00;56.90
21502;DHT22;27639;48.674;9.242;2022-08-19T07:28:35;24.00;56.90
21502;DHT22;27639;48.674;9.242;2022-08-19T07:31:12;24.00;57.00
21502;DHT22;27639;48.674;9.242;2022-08-19T07:33:39;24.00;57.10
21502;DHT22;27639;48.674;9.242;2022-08-19T07:36:06;24.00;57.30
21502;DHT22;27639;48.674;9.242;2022-08-19T07:38:33;24.00;57.40
21502;DHT22;27639;48.674;9.242;2022-08-19T07:41:00;24.00;57.70
21502;DHT22;27639;48.674;9.242;2022-08-19T07:43:26;23.90;57.90
21502;DHT22;27639;48.674;9.242;2022-08-19T07:45:54;23.90;58.00
21502;DHT22;27639;48.674;9.242;2022-08-19T07:48:26;23.90;58.30
21502;DHT22;27639;48.674;9.242;2022-08-19T07:50:53;23.80;58.30
21502;DHT22;27639;48.674;9.242;2022-08-19T07:53:23;23.80;58.70
21502;DHT22;27639;48.674;9.242;2022-08-19T07:55:49;23.80;58.80
21502;DHT22;27639;48.674;9.242;2022-08-19T07:58:18;23.70;59.00
21502;DHT22;27639;48.674;9.242;2022-08-19T08:00:46;23.80;59.10
21502;DHT22;27639;48.674;9.242;2022-08-19T08:03:13;23.70;59.00
21502;DHT22;27639;48.674;9.242;2022-08-19T08:05:38;23.70;59.00
21502;DHT22;27639;48.674;9.242;2022-08-19T08:08:22;23.70;59.20
21502;DHT22;27639;48.674;9.242;2022-08-19T08:11:07;23.60;59.50
21502;DHT22;27639;48.674;9.242;2022-08-19T08:13:33;23.60;59.60
21502;DHT22;27639;48.674;9.242;2022-08-19T08:16:01;23.60;59.80
21502;DHT22;27639;48.674;9.242;2022-08-19T08:18:27;23.60;60.00
21502;DHT22;27639;48.674;9.242;2022-08-19T08:20:52;23.60;60.00
21502;DHT22;27639;48.674;9.242;2022-08-19T08:23:18;23.60;60.00
21502;DHT22;27639;48.674;9.242;2022-08-19T08:25:57;23.60;60.20
21502;DHT22;27639;48.674;9.242;2022-08-19T08:28:24;23.60;61.10
21502;DHT22;27639;48.674;9.242;2022-08-19T08:30:50;23.50;60.30
21502;DHT22;27639;48.674;9.242;2022-08-19T08:33:19;23.50;60.40
21502;DHT22;27639;48.674;9.242;2022-08-19T08:35:45;23.50;60.40
21502;DHT22;27639;48.674;9.242;2022-08-19T08:38:11;23.50;60.60
21502;DHT22;27639;48.674;9.242;2022-08-19T08:46:45;23.50;60.70
21502;DHT22;27639;48.674;9.242;2022-08-19T08:49:09;23.50;60.70
21502;DHT22;27639;48.674;9.242;2022-08-19T08:51:52;23.50;60.80
21502;DHT22;27639;48.674;9.242;2022-08-19T08:54:24;23.50;61.10
21502;DHT22;27639;48.674;9.242;2022-08-19T08:56:52;23.50;61.50
21502;DHT22;27639;48.674;9.242;2022-08-19T09:01:44;23.50;61.50
21502;DHT22;27639;48.674;9.242;2022-08-19T09:04:11;23.50;61.60
21502;DHT22;27639;48.674;9.242;2022-08-19T09:07:07;23.50;62.40
21502;DHT22;27639;48.674;9.242;2022-08-19T09:09:45;23.50;62.40
21502;DHT22;27639;48.674;9.242;2022-08-19T09:12:26;23.50;61.60
21502;DHT22;27639;48.674;9.242;2022-08-19T09:14:58;23.50;61.60
21502;DHT22;27639;48.674;9.242;2022-08-19T09:17:27;23.50;61.60
21502;DHT22;27639;48.674;9.242;2022-08-19T09:22:31;23.50;61.50
21502;DHT22;27639;48.674;9.242;2022-08-19T09:24:57;23.50;61.50
21502;DHT22;27639;48.674;9.242;2022-08-19T09:27:24;23.50;61.60
21502;DHT22;27639;48.674;9.242;2022-08-19T09:29:51;23.50;61.60
21502;DHT22;27639;48.674;9.242;2022-08-19T09:32:19;23.50;62.30
21502;DHT22;27639;48.674;9.242;2022-08-19T09:34:45;23.50;62.60
21502;DHT22;27639;48.674;9.242;2022-08-19T09:37:11;23.60;62.70
21502;DHT22;27639;48.674;9.242;2022-08-19T09:39:38;23.50;62.70
21502;DHT22;27639;48.674;9.242;2022-08-19T09:42:03;23.50;63.00
21502;DHT22;27639;48.674;9.242;2022-08-19T09:44:30;23.60;63.10
21502;DHT22;27639;48.674;9.242;2022-08-19T09:46:56;23.60;63.00
21502;DHT22;27639;48.674;9.242;2022-08-19T09:49:22;23.60;62.80
21502;DHT22;27639;48.674;9.242;2022-08-19T09:51:52;23.60;62.70
21502;DHT22;27639;48.674;9.242;2022-08-19T09:54:19;23.60;62.60
21502;DHT22;27639;48.674;9.242;2022-08-19T09:56:45;23.70;62.90
21502;DHT22;27639;48.674;9.242;2022-08-19T09:59:10;23.60;62.80
21502;DHT22;27639;48.674;9.242;2022-08-19T10:01:38;23.60;62.80
21502;DHT22;27639;48.674;9.242;2022-08-19T10:04:03;23.70;62.90
21502;DHT22;27639;48.674;9.242;2022-08-19T10:06:34;23.60;63.10
21502;DHT22;27639;48.674;9.242;2022-08-19T10:09:01;23.60;63.30
21502;DHT22;27639;48.674;9.242;2022-08-19T10:11:29;23.60;63.30
21502;DHT22;27639;48.674;9.242;2022-08-19T10:13:55;23.60;63.10
21502;DHT22;27639;48.674;9.242;2022-08-19T10:16:22;23.70;63.20
21502;DHT22;27639;48.674;9.242;2022-08-19T10:18:49;23.70;63.00
21502;DHT22;27639;48.674;9.242;2022-08-19T10:21:17;23.80;63.30
21502;DHT22;27639;48.674;9.242;2022-08-19T10:23:45;23.80;63.20
21502;DHT22;27639;48.674;9.242;2022-08-19T10:26:18;23.80;63.40
21502;DHT22;27639;48.674;9.242;2022-08-19T10:28:44;23.70;63.30
21502;DHT22;27639;48.674;9.242;2022-08-19T10:31:12;23.70;63.50
21502;DHT22;27639;48.674;9.242;2022-08-19T10:33:39;23.80;63.80
21502;DHT22;27639;48.674;9.242;2022-08-19T10:36:17;23.70;64.60
21502;DHT22;27639;48.674;9.242;2022-08-19T10:38:43;23.70;63.60
21502;DHT22;27639;48.674;9.242;2022-08-19T10:41:16;23.80;63.80
21502;DHT22;27639;48.674;9.242;2022-08-19T10:43:42;23.80;63.80
21502;DHT22;27639;48.674;9.242;2022-08-19T10:46:12;23.80;63.80
21502;DHT22;27639;48.674;9.242;2022-08-19T10:48:38;23.80;63.80
21502;DHT22;27639;48.674;9.242;2022-08-19T10:51:04;23.80;64.00
21502;DHT22;27639;48.674;9.242;2022-08-19T10:53:49;23.80;64.00
21502;DHT22;27639;48.674;9.242;2022-08-19T10:56:15;23.80;64.30
21502;DHT22;27639;48.674;9.242;2022-08-19T10:58:59;23.80;64.50
21502;DHT22;27639;48.674;9.242;2022-08-19T11:01:26;23.80;64.70
21502;DHT22;27639;48.674;9.242;2022-08-19T11:03:52;23.80;64.80
21502;DHT22;27639;48.674;9.242;2022-08-19T11:06:18;23.70;64.70
21502;DHT22;27639;48.674;9.242;2022-08-19T11:08:45;23.80;64.80
21502;DHT22;27639;48.674;9.242;2022-08-19T11:11:12;23.80;64.70
21502;DHT22;27639;48.674;9.242;2022-08-19T11:13:39;23.80;64.50
21502;DHT22;27639;48.674;9.242;2022-08-19T11:16:18;23.80;64.50
21502;DHT22;27639;48.674;9.242;2022-08-19T11:18:48;23.80;64.50
21502;DHT22;27639;48.674;9.242;2022-08-19T11:21:22;23.80;64.70
21502;DHT22;27639;48.674;9.242;2022-08-19T11:23:49;23.80;64.90
21502;DHT22;27639;48.674;9.242;2022-08-19T11:26:16;23.60;64.80
21502;DHT22;27639;48.674;9.242;2022-08-19T11:28:42;23.70;65.30
21502;DHT22;27639;48.674;9.242;2022-08-19T11:31:13;23.80;65.40
21502;DHT22;27639;48.674;9.242;2022-08-19T11:33:39;23.90;65.30
21502;DHT22;27639;48.674;9.242;2022-08-19T11:36:05;23.90;65.50
21502;DHT22;27639;48.674;9.242;2022-08-19T11:38:31;23.80;65.70
21502;DHT22;27639;48.674;9.242;2022-08-19T11:41:03;23.80;65.90
21502;DHT22;27639;48.674;9.242;2022-08-19T11:43:29;23.80;66.00
21502;DHT22;27639;48.674;9.242;2022-08-19T11:45:56;23.80;67.10
21502;DHT22;27639;48.674;9.242;2022-08-19T11:48:23;23.70;66.30
21502;DHT22;27639;48.674;9.242;2022-08-19T11:50:53;23.70;66.50
21502;DHT22;27639;48.674;9.242;2022-08-19T11:53:22;23.60;67.60
21502;DHT22;27639;48.674;9.242;2022-08-19T11:55:48;23.50;67.10
21502;DHT22;27639;48.674;9.242;2022-08-19T11:58:15;23.50;67.50
21502;DHT22;27639;48.674;9.242;2022-08-19T12:00:41;23.40;67.80
21502;DHT22;27639;48.674;9.242;2022-08-19T12:03:08;23.40;68.10
21502;DHT22;27639;48.674;9.242;2022-08-19T12:05:36;23.40;68.10
21502;DHT22;27639;48.674;9.242;2022-08-19T12:08:02;23.30;68.30
21502;DHT22;27639;48.674;9.242;2022-08-19T12:10:28;23.30;68.50
21502;DHT22;27639;48.674;9.242;2022-08-19T12:12:53;23.20;68.70
21502;DHT22;27639;48.674;9.242;2022-08-19T12:15:19;23.20;68.90
21502;DHT22;27639;48.674;9.242;2022-08-19T12:17:44;23.20;69.10
21502;DHT22;27639;48.674;9.242;2022-08-19T12:20:11;23.10;69.20
21502;DHT22;27639;48.674;9.242;2022-08-19T12:22:39;23.10;69.40
21502;DHT22;27639;48.674;9.242;2022-08-19T12:25:07;23.00;69.40
21502;DHT22;27639;48.674;9.242;2022-08-19T12:27:33;23.10;69.60
21502;DHT22;27639;48.674;9.242;2022-08-19T12:30:01;23.20;69.60
21502;DHT22;27639;48.674;9.242;2022-08-19T12:32:27;23.20;69.30
21502;DHT22;27639;48.674;9.242;2022-08-19T12:34:53;23.30;69.30
21502;DHT22;27639;48.674;9.242;2022-08-19T12:37:19;23.30;69.30
21502;DHT22;27639;48.674;9.242;2022-08-19T12:39:45;23.20;69.30
21502;DHT22;27639;48.674;9.242;2022-08-19T12:42:12;23.20;69.40
21502;DHT22;27639;48.674;9.242;2022-08-19T12:44:40;23.20;69.40
21502;DHT22;27639;48.674;9.242;2022-08-19T12:47:06;23.10;69.70
21502;DHT22;27639;48.674;9.242;2022-08-19T12:49:33;23.20;69.80
21502;DHT22;27639;48.674;9.242;2022-08-19T12:52:03;23.20;69.80
21502;DHT22;27639;48.674;9.242;2022-08-19T12:54:29;23.20;69.80
21502;DHT22;27639;48.674;9.242;2022-08-19T12:56:58;23.20;69.60
21502;DHT22;27639;48.674;9.242;2022-08-19T12:59:25;23.20;70.50
21502;DHT22;27639;48.674;9.242;2022-08-19T13:01:51;23.30;69.60
21502;DHT22;27639;48.674;9.242;2022-08-19T13:04:17;23.20;69.80
21502;DHT22;27639;48.674;9.242;2022-08-19T13:06:43;23.10;70.10
21502;DHT22;27639;48.674;9.242;2022-08-19T13:09:09;23.00;70.40
21502;DHT22;27639;48.674;9.242;2022-08-19T13:11:35;22.90;70.60
21502;DHT22;27639;48.674;9.242;2022-08-19T13:14:02;23.00;70.80
21502;DHT22;27639;48.674;9.242;2022-08-19T13:16:28;23.00;71.30
21502;DHT22;27639;48.674;9.242;2022-08-19T13:18:55;23.00;71.10
21502;DHT22;27639;48.674;9.242;2022-08-19T13:21:23;22.90;71.40
21502;DHT22;27639;48.674;9.242;2022-08-19T13:23:50;22.80;71.50
21502;DHT22;27639;48.674;9.242;2022-08-19T13:26:16;22.80;71.80
21502;DHT22;27639;48.674;9.242;2022-08-19T13:28:43;22.90;71.90
21502;DHT22;27639;48.674;9.242;2022-08-19T13:31:31;22.80;71.80
21502;DHT22;27639;48.674;9.242;2022-08-19T13:34:17;22.80;72.00
21502;DHT22;27639;48.674;9.242;2022-08-19T13:36:43;22.70;72.40
21502;DHT22;27639;48.674;9.242;2022-08-19T13:39:09;22.80;72.30
21502;DHT22;27639;48.674;9.242;2022-08-19T13:41:35;22.80;72.00
21502;DHT22;27639;48.674;9.242;2022-08-19T13:44:02;22.90;71.90
21502;DHT22;27639;48.674;9.242;2022-08-19T13:46:28;22.80;71.80
21502;DHT22;27639;48.674;9.242;2022-08-19T13:48:54;22.80;71.70
21502;DHT22;27639;48.674;9.242;2022-08-19T13:51:20;22.80;71.50
21502;DHT22;27639;48.674;9.242;2022-08-19T13:53:45;22.90;72.40
21502;DHT22;27639;48.674;9.242;2022-08-19T13:56:16;22.90;71.40
21502;DHT22;27639;48.674;9.242;2022-08-19T13:58:42;23.00;71.30
21502;DHT22;27639;48.674;9.242;2022-08-19T14:01:09;22.90;71.40
21502;DHT22;27639;48.674;9.242;2022-08-19T14:03:34;22.90;71.30
21502;DHT22;27639;48.674;9.242;2022-08-19T14:06:00;23.00;71.30
21502;DHT22;27639;48.674;9.242;2022-08-19T14:08:27;22.90;72.00
21502;DHT22;27639;48.674;9.242;2022-08-19T14:10:54;22.90;71.20
21502;DHT22;27639;48.674;9.242;2022-08-19T14:13:22;22.90;71.10
21502;DHT22;27639;48.674;9.242;2022-08-19T14:15:49;23.00;71.00
21502;DHT22;27639;48.674;9.242;2022-08-19T14:18:16;23.00;70.90
21502;DHT22;27639;48.674;9.242;2022-08-19T14:20:43;23.00;70.60
21502;DHT22;27639;48.674;9.242;2022-08-19T14:23:09;23.00;70.40
21502;DHT22;27639;48.674;9.242;2022-08-19T14:25:35;23.00;70.50
21502;DHT22;27639;48.674;9.242;2022-08-19T14:28:01;23.00;70.30
21502;DHT22;27639;48.674;9.242;2022-08-19T14:30:29;23.10;70.30
21502;DHT22;27639;48.674;9.242;2022-08-19T14:32:57;23.00;70.20
21502;DHT22;27639;48.674;9.242;2022-08-19T14:35:23;23.00;70.10
21502;DHT22;27639;48.674;9.242;2022-08-19T14:37:50;23.00;70.10
21502;DHT22;27639;48.674;9.242;2022-08-19T14:40:19;23.00;69.90
21502;DHT22;27639;48.674;9.242;2022-08-19T14:42:52;23.10;69.90
21502;DHT22;27639;48.674;9.242;2022-08-19T14:45:21;23.10;69.90
21502;DHT22;27639;48.674;9.242;2022-08-19T14:47:46;23.10;69.80
21502;DHT22;27639;48.674;9.242;2022-08-19T14:50:12;23.10;69.70
21502;DHT22;27639;48.674;9.242;2022-08-19T14:52:39;23.10;69.60
21502;DHT22;27639;48.674;9.242;2022-08-19T14:55:05;23.10;69.50
21502;DHT22;27639;48.674;9.242;2022-08-19T14:57:31;23.20;69.40
21502;DHT22;27639;48.674;9.242;2022-08-19T14:59:56;23.20;69.30
21502;DHT22;27639;48.674;9.242;2022-08-19T15:02:22;23.10;69.20
21502;DHT22;27639;48.674;9.242;2022-08-19T15:04:48;23.20;69.30
21502;DHT22;27639;48.674;9.242;2022-08-19T15:07:15;23.10;69.20
21502;DHT22;27639;48.674;9.242;2022-08-19T15:09:41;23.10;69.20
21502;DHT22;27639;48.674;9.242;2022-08-19T15:12:07;23.20;69.30
21502;DHT22;27639;48.674;9.242;2022-08-19T15:14:36;23.20;69.10
21502;DHT22;27639;48.674;9.242;2022-08-19T15:17:04;23.20;68.90
21502;DHT22;27639;48.674;9.242;2022-08-19T15:19:30;23.20;68.80
21502;DHT22;27639;48.674;9.242;2022-08-19T15:21:58;23.30;68.60
21502;DHT22;27639;48.674;9.242;2022-08-19T15:24:24;23.30;68.60
21502;DHT22;27639;48.674;9.242;2022-08-19T15:26:53;23.30;68.50
21502;DHT22;27639;48.674;9.242;2022-08-19T15:29:21;23.20;68.40
21502;DHT22;27639;48.674;9.242;2022-08-19T15:31:50;23.30;68.40
21502;DHT22;27639;48.674;9.242;2022-08-19T15:34:16;23.30;68.50
21502;DHT22;27639;48.674;9.242;2022-08-19T15:36:42;23.30;68.40
21502;DHT22;27639;48.674;9.242;2022-08-19T15:39:08;23.40;68.30
21502;DHT22;27639;48.674;9.242;2022-08-19T15:41:35;23.40;68.10
21502;DHT22;27639;48.674;9.242;2022-08-19T15:44:09;23.40;68.20
21502;DHT22;27639;48.674;9.242;2022-08-19T15:46:39;23.40;67.90
21502;DHT22;27639;48.674;9.242;2022-08-19T15:49:05;23.50;67.90
21502;DHT22;27639;48.674;9.242;2022-08-19T15:51:33;23.50;67.90
21502;DHT22;27639;48.674;9.242;2022-08-19T15:54:01;23.60;68.00
21502;DHT22;27639;48.674;9.242;2022-08-19T15:56:27;23.60;67.90